createdAt,value
2023-08-22T00:00:58.887Z,100.00
2023-08-22T00:03:25.596Z,100.00
2023-08-22T00:05:52.187Z,100.00
2023-08-22T00:08:18.644Z,100.00
2023-08-22T00:10:46.563Z,100.00
2023-08-22T00:13:13.024Z,100.00
2023-08-22T00:15:39.670Z,100.00
2023-08-22T00:18:06.374Z,100.00
2023-08-22T00:20:33.891Z,100.00
2023-08-22T00:23:00.480Z,100.00
2023-08-22T00:25:27.044Z,100.00
2023-08-22T00:27:53.570Z,100.00
2023-08-22T00:30:20.151Z,100.00
2023-08-22T00:32:46.737Z,100.00
2023-08-22T00:35:13.273Z,100.00
2023-08-22T00:37:40.004Z,100.00
2023-08-22T00:40:08.091Z,100.00
2023-08-22T00:42:34.582Z,100.00
2023-08-22T00:45:01.158Z,100.00
2023-08-22T00:47:28.067Z,100.00
2023-08-22T00:49:55.566Z,100.00
2023-08-22T00:52:22.112Z,100.00
2023-08-22T00:54:49.609Z,100.00
2023-08-22T00:57:16.363Z,100.00
2023-08-22T00:59:43.447Z,100.00
2023-08-22T01:02:10.011Z,100.00
2023-08-22T01:04:36.654Z,100.00
2023-08-22T01:07:12.833Z,100.00
2023-08-22T01:10:01.889Z,100.00
2023-08-22T01:12:52.803Z,100.00
2023-08-22T01:15:27.525Z,100.00
2023-08-22T01:17:56.054Z,100.00
2023-08-22T01:20:26.017Z,100.00
2023-08-22T01:22:52.558Z,100.00
2023-08-22T01:25:19.007Z,100.00
2023-08-22T01:28:10.262Z,100.00
2023-08-22T01:30:48.706Z,100.00
2023-08-22T01:33:32.407Z,100.00
2023-08-22T01:35:58.967Z,100.00
2023-08-22T01:38:30.576Z,100.00
2023-08-22T01:40:58.906Z,100.00
2023-08-22T01:43:25.519Z,100.00
2023-08-22T01:45:52.160Z,100.00
2023-08-22T01:48:18.676Z,100.00
2023-08-22T01:50:45.241Z,100.00
2023-08-22T01:53:11.788Z,100.00
2023-08-22T01:55:38.334Z,100.00
2023-08-22T01:58:05.521Z,100.00
2023-08-22T02:00:32.529Z,100.00
2023-08-22T02:02:59.225Z,100.00
2023-08-22T02:05:25.887Z,100.00
2023-08-22T02:07:52.377Z,100.00
2023-08-22T02:10:18.871Z,100.00
2023-08-22T02:12:45.382Z,100.00
2023-08-22T02:15:11.848Z,100.00
2023-08-22T02:17:39.646Z,100.00
2023-08-22T02:20:08.448Z,100.00
2023-08-22T02:22:41.489Z,100.00
2023-08-22T02:25:09.347Z,100.00
2023-08-22T02:27:36.014Z,100.00
2023-08-22T02:30:02.721Z,100.00
2023-08-22T02:32:29.340Z,100.00
2023-08-22T02:34:55.920Z,100.00
2023-08-22T02:37:22.385Z,100.00
2023-08-22T02:39:48.917Z,100.00
2023-08-22T02:42:15.384Z,100.00
2023-08-22T02:44:42.003Z,100.00
2023-08-22T02:47:08.499Z,100.00
2023-08-22T02:49:35.027Z,100.00
2023-08-22T02:52:01.540Z,100.00
2023-08-22T02:54:28.377Z,100.00
2023-08-22T02:56:54.994Z,100.00
2023-08-22T02:59:21.487Z,100.00
2023-08-22T03:01:48.163Z,100.00
2023-08-22T03:04:14.676Z,100.00
2023-08-22T03:06:41.192Z,100.00
2023-08-22T03:09:08.561Z,100.00
2023-08-22T03:11:35.074Z,100.00
2023-08-22T03:14:01.660Z,100.00
2023-08-22T03:16:28.230Z,100.00
2023-08-22T03:18:55.265Z,100.00
2023-08-22T03:21:21.825Z,100.00
2023-08-22T03:23:48.319Z,100.00
2023-08-22T03:26:15.003Z,100.00
2023-08-22T03:28:41.792Z,100.00
2023-08-22T03:31:08.370Z,100.00
2023-08-22T03:33:35.081Z,100.00
2023-08-22T03:36:02.046Z,100.00
2023-08-22T03:38:28.564Z,100.00
2023-08-22T03:40:56.262Z,100.00
2023-08-22T03:43:22.977Z,100.00
2023-08-22T03:45:49.691Z,100.00
2023-08-22T03:48:16.626Z,100.00
2023-08-22T03:50:43.905Z,100.00
2023-08-22T03:53:13.841Z,100.00
2023-08-22T03:55:41.806Z,100.00
2023-08-22T03:58:08.453Z,100.00
2023-08-22T04:00:35.049Z,100.00
2023-08-22T04:03:01.626Z,100.00
2023-08-22T04:05:28.190Z,100.00
2023-08-22T04:07:54.926Z,100.00
2023-08-22T04:10:21.780Z,100.00
2023-08-22T04:12:48.482Z,100.00
2023-08-22T04:15:16.174Z,100.00
2023-08-22T04:17:43.550Z,100.00
2023-08-22T04:20:12.040Z,100.00
2023-08-22T04:22:42.453Z,100.00
2023-08-22T04:25:12.514Z,100.00
2023-08-22T04:27:40.432Z,100.00
2023-08-22T04:30:08.870Z,100.00
2023-08-22T04:32:35.497Z,100.00
2023-08-22T04:35:01.972Z,100.00
2023-08-22T04:37:28.542Z,100.00
2023-08-22T04:39:55.096Z,100.00
2023-08-22T04:42:21.663Z,100.00
2023-08-22T04:44:48.165Z,100.00
2023-08-22T04:47:14.689Z,100.00
2023-08-22T04:49:41.227Z,100.00
2023-08-22T04:52:08.550Z,100.00
2023-08-22T04:54:35.356Z,100.00
2023-08-22T04:57:01.885Z,100.00
2023-08-22T04:59:28.796Z,100.00
2023-08-22T05:01:55.509Z,100.00
2023-08-22T05:04:22.310Z,100.00
2023-08-22T05:06:48.855Z,100.00
2023-08-22T05:09:16.393Z,100.00
2023-08-22T05:11:43.034Z,100.00
2023-08-22T05:14:10.369Z,100.00
2023-08-22T05:16:36.949Z,100.00
2023-08-22T05:19:03.744Z,100.00
2023-08-22T05:21:30.256Z,100.00
2023-08-22T05:23:56.818Z,100.00
2023-08-22T05:26:23.385Z,100.00
2023-08-22T05:28:49.994Z,100.00
2023-08-22T05:31:23.758Z,100.00
2023-08-22T05:33:51.739Z,100.00
2023-08-22T05:36:18.844Z,100.00
2023-08-22T05:38:45.457Z,100.00
2023-08-22T05:41:12.029Z,100.00
2023-08-22T05:43:38.613Z,100.00
2023-08-22T05:46:05.227Z,100.00
2023-08-22T05:48:31.854Z,100.00
2023-08-22T05:50:58.312Z,100.00
2023-08-22T05:53:25.292Z,100.00
2023-08-22T05:55:52.370Z,100.00
2023-08-22T05:58:19.062Z,100.00
2023-08-22T06:00:46.135Z,100.00
2023-08-22T06:03:12.676Z,100.00
2023-08-22T06:05:39.147Z,100.00
2023-08-22T06:08:06.148Z,100.00
2023-08-22T06:10:32.828Z,100.00
2023-08-22T06:12:59.310Z,100.00
2023-08-22T06:15:25.893Z,100.00
2023-08-22T06:17:52.498Z,100.00
2023-08-22T06:20:19.079Z,100.00
2023-08-22T06:22:45.583Z,100.00
2023-08-22T06:25:12.079Z,100.00
2023-08-22T06:27:38.792Z,100.00
2023-08-22T06:30:06.456Z,100.00
2023-08-22T06:32:33.071Z,100.00
2023-08-22T06:35:00.825Z,100.00
2023-08-22T06:37:27.391Z,100.00
2023-08-22T06:39:54.096Z,100.00
2023-08-22T06:42:20.640Z,100.00
2023-08-22T06:44:47.326Z,100.00
2023-08-22T06:47:14.145Z,100.00
2023-08-22T06:49:40.613Z,100.00
2023-08-22T06:52:07.263Z,100.00
2023-08-22T06:54:33.809Z,100.00
2023-08-22T06:57:00.390Z,98.52
2023-08-22T06:59:26.905Z,96.81
2023-08-22T07:01:53.383Z,95.38
2023-08-22T07:04:20.044Z,94.83
2023-08-22T07:06:46.619Z,94.30
2023-08-22T07:09:13.081Z,93.20
2023-08-22T07:11:39.708Z,91.48
2023-08-22T07:14:06.656Z,90.77
2023-08-22T07:16:33.323Z,91.41
2023-08-22T07:18:59.915Z,89.17
2023-08-22T07:21:26.880Z,89.04
2023-08-22T07:23:53.406Z,88.93
2023-08-22T07:26:19.882Z,87.10
2023-08-22T07:28:46.385Z,86.18
2023-08-22T07:31:13.043Z,84.83
2023-08-22T07:33:39.633Z,83.61
2023-08-22T07:36:06.475Z,82.65
2023-08-22T07:38:33.084Z,84.49
2023-08-22T07:40:59.568Z,81.93
2023-08-22T07:43:26.129Z,81.32
2023-08-22T07:45:52.656Z,80.96
2023-08-22T07:48:19.304Z,81.00
2023-08-22T07:50:45.810Z,80.32
2023-08-22T07:53:12.610Z,80.12
2023-08-22T07:55:39.144Z,79.00
2023-08-22T07:58:05.667Z,78.20
2023-08-22T08:00:32.282Z,78.58
2023-08-22T08:02:59.012Z,79.06
2023-08-22T08:05:27.229Z,81.16
2023-08-22T08:07:54.007Z,81.41
2023-08-22T08:10:20.634Z,80.76
2023-08-22T08:12:47.370Z,81.36
2023-08-22T08:15:14.135Z,79.26
2023-08-22T08:17:41.134Z,80.07
2023-08-22T08:20:11.843Z,79.66
2023-08-22T08:22:38.831Z,78.46
2023-08-22T08:25:05.644Z,79.85
2023-08-22T08:27:32.960Z,79.25
2023-08-22T08:29:59.592Z,78.82
2023-08-22T08:32:26.797Z,79.33
2023-08-22T08:34:53.323Z,77.24
2023-08-22T08:37:20.782Z,78.49
2023-08-22T08:39:47.329Z,76.71
2023-08-22T08:42:15.016Z,77.11
2023-08-22T08:44:42.063Z,75.67
2023-08-22T08:47:10.821Z,76.25
2023-08-22T08:49:38.315Z,74.68
2023-08-22T08:52:07.059Z,74.70
2023-08-22T08:54:34.095Z,73.63
2023-08-22T08:57:00.933Z,72.81
2023-08-22T08:59:28.629Z,71.92
2023-08-22T09:01:55.374Z,72.13
2023-08-22T09:04:22.687Z,71.96
2023-08-22T09:06:49.710Z,69.42
2023-08-22T09:09:19.186Z,70.19
2023-08-22T09:11:47.896Z,68.17
2023-08-22T09:14:22.298Z,71.89
2023-08-22T09:16:51.996Z,68.15
2023-08-22T09:19:18.535Z,67.13
2023-08-22T09:24:26.768Z,67.14
2023-08-22T09:26:53.534Z,66.43
2023-08-22T09:29:31.435Z,68.20
2023-08-22T09:32:05.695Z,67.62
2023-08-22T09:34:33.292Z,65.06
2023-08-22T09:37:00.409Z,64.49
2023-08-22T09:39:27.489Z,65.75
2023-08-22T09:41:58.627Z,65.97
2023-08-22T09:44:27.139Z,67.51
2023-08-22T09:46:55.359Z,66.33
2023-08-22T09:49:22.847Z,66.29
2023-08-22T09:51:51.401Z,65.65
2023-08-22T09:54:18.415Z,65.37
2023-08-22T09:56:46.392Z,65.29
2023-08-22T09:59:16.646Z,64.01
2023-08-22T10:01:43.875Z,63.57
2023-08-22T10:04:11.584Z,64.14
2023-08-22T10:09:12.698Z,60.04
2023-08-22T10:11:44.358Z,62.19
2023-08-22T10:14:19.981Z,63.34
2023-08-22T10:16:49.615Z,62.44
2023-08-22T10:19:19.463Z,61.76
2023-08-22T10:21:49.471Z,64.24
2023-08-22T10:24:31.635Z,62.38
2023-08-22T10:27:04.589Z,61.64
2023-08-22T10:29:39.075Z,62.94
2023-08-22T10:32:05.512Z,63.08
2023-08-22T10:34:35.015Z,63.19
2023-08-22T10:37:05.845Z,61.66
2023-08-22T10:39:36.195Z,63.71
2023-08-22T10:42:02.731Z,63.97
2023-08-22T10:44:31.334Z,63.91
2023-08-22T10:47:06.397Z,63.72
2023-08-22T10:49:34.023Z,64.73
2023-08-22T10:52:11.400Z,64.73
2023-08-22T10:55:12.123Z,64.36
2023-08-22T10:57:41.702Z,64.30
2023-08-22T11:00:21.070Z,63.78
2023-08-22T11:03:05.968Z,65.48
2023-08-22T11:05:32.529Z,66.35
2023-08-22T11:07:59.076Z,65.41
2023-08-22T11:10:26.768Z,64.17
2023-08-22T11:12:56.869Z,65.85
2023-08-22T11:15:23.555Z,65.38
2023-08-22T11:17:51.724Z,64.25
2023-08-22T11:20:21.717Z,64.70
2023-08-22T11:22:49.191Z,65.31
2023-08-22T11:25:24.308Z,66.41
2023-08-22T11:27:50.868Z,67.20
2023-08-22T11:30:19.966Z,66.91
2023-08-22T11:32:47.107Z,66.77
2023-08-22T11:35:13.797Z,63.74
2023-08-22T11:37:44.151Z,65.15
2023-08-22T11:40:16.201Z,62.64
2023-08-22T11:42:43.563Z,63.17
2023-08-22T11:45:12.248Z,65.64
2023-08-22T11:47:41.739Z,61.76
2023-08-22T11:50:16.011Z,62.31
2023-08-22T11:52:44.248Z,63.36
2023-08-22T11:55:12.075Z,61.41
2023-08-22T11:57:40.770Z,60.40
2023-08-22T12:00:08.303Z,61.31
2023-08-22T12:02:35.323Z,62.52
2023-08-22T12:05:02.165Z,62.07
2023-08-22T12:07:30.875Z,61.81
2023-08-22T12:10:13.323Z,62.88
2023-08-22T12:12:40.084Z,62.89
2023-08-22T12:15:07.251Z,62.69
2023-08-22T12:17:33.838Z,63.68
2023-08-22T12:20:01.818Z,63.11
2023-08-22T12:22:28.321Z,62.71
2023-08-22T12:24:54.829Z,63.10
2023-08-22T12:27:22.567Z,63.39
2023-08-22T12:29:49.189Z,64.56
2023-08-22T12:32:15.737Z,64.07
2023-08-22T12:34:42.215Z,64.39
2023-08-22T12:37:08.747Z,63.05
2023-08-22T12:39:35.195Z,63.94
2023-08-22T12:42:01.778Z,64.21
2023-08-22T12:44:28.917Z,63.31
2023-08-22T12:46:58.197Z,63.31
2023-08-22T12:49:24.730Z,62.64
2023-08-22T12:51:51.146Z,62.92
2023-08-22T12:54:17.772Z,63.06
2023-08-22T12:56:44.227Z,63.86
2023-08-22T12:59:10.821Z,65.74
2023-08-22T13:01:37.386Z,61.48
2023-08-22T13:04:12.798Z,62.80
2023-08-22T13:06:40.120Z,62.62
2023-08-22T13:09:11.463Z,60.83
2023-08-22T13:11:42.998Z,61.91
2023-08-22T13:14:11.064Z,62.09
2023-08-22T13:16:39.571Z,62.14
2023-08-22T13:19:06.462Z,62.06
2023-08-22T13:21:33.360Z,61.95
2023-08-22T13:23:59.954Z,61.55
2023-08-22T13:26:26.503Z,61.68
2023-08-22T13:28:53.083Z,60.89
2023-08-22T13:31:21.442Z,59.34
2023-08-22T13:33:48.439Z,58.71
2023-08-22T13:36:14.999Z,61.64
2023-08-22T13:38:41.479Z,60.71
2023-08-22T13:41:08.112Z,59.19
2023-08-22T13:43:34.659Z,59.78
2023-08-22T13:46:01.242Z,58.29
2023-08-22T13:48:27.865Z,59.29
2023-08-22T13:50:56.513Z,60.50
2023-08-22T13:53:23.019Z,59.10
2023-08-22T13:55:49.645Z,60.36
2023-08-22T13:58:17.771Z,59.71
2023-08-22T14:00:44.250Z,60.66
2023-08-22T14:03:10.960Z,60.23
2023-08-22T14:05:37.592Z,60.15
2023-08-22T14:08:05.869Z,59.64
2023-08-22T14:10:32.833Z,60.07
2023-08-22T14:12:59.338Z,59.69
2023-08-22T14:15:25.916Z,60.10
2023-08-22T14:17:52.455Z,61.47
2023-08-22T14:20:19.321Z,61.35
2023-08-22T14:22:46.069Z,60.10
2023-08-22T14:25:12.777Z,60.83
2023-08-22T14:27:39.549Z,60.03
2023-08-22T14:30:06.647Z,61.88
2023-08-22T14:32:34.073Z,61.50
2023-08-22T14:35:00.718Z,59.50
2023-08-22T14:37:27.192Z,58.62
2023-08-22T14:39:55.660Z,59.52
2023-08-22T14:42:22.262Z,60.13
2023-08-22T14:44:48.803Z,60.99
2023-08-22T14:47:15.377Z,59.09
2023-08-22T14:49:41.875Z,58.24
2023-08-22T14:52:08.529Z,57.57
2023-08-22T14:54:35.132Z,58.11
2023-08-22T14:57:01.691Z,57.86
2023-08-22T14:59:28.264Z,57.28
2023-08-22T15:01:54.943Z,59.18
2023-08-22T15:04:25.981Z,59.00
2023-08-22T15:06:52.554Z,59.39
2023-08-22T15:09:19.037Z,57.39
2023-08-22T15:11:45.611Z,57.86
2023-08-22T15:14:13.468Z,58.16
2023-08-22T15:16:40.012Z,58.64
2023-08-22T15:19:10.050Z,58.25
2023-08-22T15:21:36.576Z,60.19
2023-08-22T15:24:03.474Z,58.44
2023-08-22T15:26:30.074Z,59.61
2023-08-22T15:28:56.604Z,60.05
2023-08-22T15:31:23.356Z,59.06
2023-08-22T15:33:49.949Z,60.06
2023-08-22T15:36:16.471Z,59.52
2023-08-22T15:38:43.027Z,60.39
2023-08-22T15:41:11.653Z,60.56
2023-08-22T15:43:38.453Z,60.24
2023-08-22T15:46:05.066Z,61.52
2023-08-22T15:48:31.847Z,61.22
2023-08-22T15:51:01.301Z,59.53
2023-08-22T15:53:27.883Z,59.97
2023-08-22T15:55:54.557Z,61.41
2023-08-22T15:58:21.111Z,60.35
2023-08-22T16:00:47.645Z,61.46
2023-08-22T16:03:14.261Z,61.43
2023-08-22T16:05:42.218Z,61.15
2023-08-22T16:08:08.719Z,61.13
2023-08-22T16:10:35.314Z,60.88
2023-08-22T16:13:01.863Z,60.47
2023-08-22T16:15:30.534Z,60.47
2023-08-22T16:17:58.576Z,60.61
2023-08-22T16:20:25.161Z,62.14
2023-08-22T16:22:51.951Z,61.65
2023-08-22T16:25:18.610Z,60.77
2023-08-22T16:27:45.134Z,62.01
2023-08-22T16:30:12.003Z,61.39
2023-08-22T16:32:38.574Z,63.13
2023-08-22T16:35:05.591Z,62.42
2023-08-22T16:37:32.067Z,62.74
2023-08-22T16:39:58.641Z,62.93
2023-08-22T16:42:25.178Z,63.34
2023-08-22T16:44:51.846Z,63.46
2023-08-22T16:47:18.506Z,63.26
2023-08-22T16:49:45.165Z,64.38
2023-08-22T16:52:11.745Z,62.94
2023-08-22T16:54:38.320Z,62.53
2023-08-22T16:57:05.605Z,63.07
2023-08-22T16:59:32.408Z,63.14
2023-08-22T17:02:00.414Z,62.85
2023-08-22T17:04:27.359Z,63.05
2023-08-22T17:06:53.882Z,63.35
2023-08-22T17:09:21.573Z,64.38
2023-08-22T17:11:48.302Z,62.63
2023-08-22T17:14:14.911Z,62.21
2023-08-22T17:16:41.515Z,63.00
2023-08-22T17:19:08.046Z,64.07
2023-08-22T17:21:34.751Z,65.04
2023-08-22T17:24:01.317Z,60.92
2023-08-22T17:26:27.824Z,61.30
2023-08-22T17:28:54.367Z,61.42
2023-08-22T17:31:22.467Z,60.83
2023-08-22T17:33:49.156Z,60.98
2023-08-22T17:36:15.853Z,61.41
2023-08-22T17:38:44.301Z,61.64
2023-08-22T17:41:11.874Z,63.71
2023-08-22T17:43:40.454Z,63.17
2023-08-22T17:46:07.111Z,61.69
2023-08-22T17:48:33.792Z,63.25
2023-08-22T17:51:01.359Z,63.10
2023-08-22T17:53:28.597Z,62.93
2023-08-22T17:55:55.836Z,64.54
2023-08-22T17:58:23.269Z,64.65
2023-08-22T18:00:51.490Z,64.77
2023-08-22T18:03:19.093Z,65.31
2023-08-22T18:05:59.235Z,64.91
2023-08-22T18:08:26.734Z,66.59
2023-08-22T18:10:54.626Z,66.67
2023-08-22T18:13:21.763Z,66.68
2023-08-22T18:16:09.777Z,66.99
2023-08-22T18:18:41.908Z,68.91
2023-08-22T18:21:12.590Z,70.20
2023-08-22T18:23:40.454Z,69.13
2023-08-22T18:26:09.479Z,70.45
2023-08-22T18:28:36.659Z,72.66
2023-08-22T18:31:11.626Z,74.00
2023-08-22T18:33:39.021Z,72.88
2023-08-22T18:36:41.852Z,73.78
2023-08-22T18:39:08.387Z,73.87
2023-08-22T18:41:34.953Z,74.91
2023-08-22T18:44:03.340Z,75.05
2023-08-22T18:46:30.066Z,74.08
2023-08-22T18:48:56.684Z,74.46
2023-08-22T18:51:23.400Z,74.93
2023-08-22T18:53:49.881Z,76.24
2023-08-22T18:56:17.276Z,77.39
2023-08-22T18:58:43.849Z,76.65
2023-08-22T19:01:10.352Z,77.77
2023-08-22T19:03:36.906Z,78.56
2023-08-22T19:06:04.448Z,79.17
2023-08-22T19:08:32.075Z,80.17
2023-08-22T19:10:58.599Z,80.62
2023-08-22T19:13:25.131Z,81.15
2023-08-22T19:15:51.719Z,81.24
2023-08-22T19:18:18.348Z,81.86
2023-08-22T19:20:47.393Z,82.96
2023-08-22T19:23:14.336Z,83.64
2023-08-22T19:25:40.920Z,84.27
2023-08-22T19:28:07.901Z,85.57
2023-08-22T19:30:34.473Z,86.13
2023-08-22T19:33:17.036Z,86.30
2023-08-22T19:35:44.718Z,86.52
2023-08-22T19:38:11.296Z,87.96
2023-08-22T19:40:43.006Z,88.56
2023-08-22T19:43:09.813Z,89.18
2023-08-22T19:45:36.413Z,90.35
2023-08-22T19:48:03.061Z,90.37
2023-08-22T19:50:29.682Z,91.15
2023-08-22T19:52:56.118Z,91.92
2023-08-22T19:55:22.569Z,92.27
2023-08-22T19:57:49.485Z,92.84
2023-08-22T20:00:17.580Z,92.50
2023-08-22T20:02:46.553Z,92.84
2023-08-22T20:05:14.771Z,92.79
2023-08-22T20:07:41.343Z,93.22
2023-08-22T20:10:08.898Z,93.53
2023-08-22T20:12:35.456Z,93.57
2023-08-22T20:15:02.201Z,93.99
2023-08-22T20:17:28.761Z,93.83
2023-08-22T20:19:55.502Z,93.63
2023-08-22T20:22:21.991Z,94.26
2023-08-22T20:24:48.482Z,94.99
2023-08-22T20:27:15.391Z,94.85
2023-08-22T20:29:42.288Z,95.33
2023-08-22T20:32:08.878Z,95.99
2023-08-22T20:34:35.404Z,96.34
2023-08-22T20:37:01.874Z,96.41
2023-08-22T20:39:29.468Z,96.26
2023-08-22T20:41:56.736Z,97.28
2023-08-22T20:44:23.427Z,97.14
2023-08-22T20:46:50.940Z,97.40
2023-08-22T20:49:17.479Z,97.19
2023-08-22T20:51:44.345Z,96.47
2023-08-22T20:54:10.923Z,98.14
2023-08-22T20:56:37.450Z,96.98
2023-08-22T20:59:03.948Z,98.11
2023-08-22T21:01:30.489Z,98.37
2023-08-22T21:03:58.179Z,97.83
2023-08-22T21:06:24.790Z,98.15
2023-08-22T21:08:51.369Z,97.88
2023-08-22T21:11:18.064Z,97.77
2023-08-22T21:13:44.567Z,98.08
2023-08-22T21:16:11.200Z,97.82
2023-08-22T21:18:37.808Z,98.13
2023-08-22T21:21:04.357Z,98.76
2023-08-22T21:23:30.947Z,99.03
2023-08-22T21:25:58.697Z,98.41
2023-08-22T21:28:25.188Z,98.94
2023-08-22T21:30:52.426Z,98.95
2023-08-22T21:33:19.291Z,98.28
2023-08-22T21:35:46.254Z,98.91
2023-08-22T21:38:12.832Z,99.34
2023-08-22T21:40:45.931Z,99.29
2023-08-22T21:43:12.491Z,98.89
2023-08-22T21:45:39.082Z,99.04
2023-08-22T21:48:05.966Z,98.90
2023-08-22T21:50:32.660Z,99.15
2023-08-22T21:52:59.179Z,99.31
2023-08-22T21:55:25.652Z,99.74
2023-08-22T21:57:52.160Z,99.59
2023-08-22T22:00:18.872Z,99.85
2023-08-22T22:02:45.728Z,99.79
2023-08-22T22:05:12.957Z,100.00
2023-08-22T22:07:39.489Z,100.00
2023-08-22T22:10:06.896Z,100.00
2023-08-22T22:12:33.460Z,100.00
2023-08-22T22:14:59.933Z,100.00
2023-08-22T22:17:26.427Z,99.47
2023-08-22T22:19:53.112Z,99.65
2023-08-22T22:22:19.572Z,99.61
2023-08-22T22:24:46.037Z,99.85
2023-08-22T22:27:13.202Z,100.00
2023-08-22T22:29:39.655Z,99.27
2023-08-22T22:32:06.417Z,99.44
2023-08-22T22:34:32.931Z,99.12
2023-08-22T22:36:59.725Z,99.72
2023-08-22T22:39:26.213Z,98.83
2023-08-22T22:41:52.789Z,98.59
2023-08-22T22:44:20.054Z,99.58
2023-08-22T22:46:46.628Z,100.00
2023-08-22T22:49:13.142Z,100.00
2023-08-22T22:51:39.706Z,98.96
2023-08-22T22:54:06.357Z,99.19
2023-08-22T22:56:32.924Z,99.44
2023-08-22T22:58:59.408Z,98.58
2023-08-22T23:01:26.073Z,99.32
2023-08-22T23:03:52.604Z,99.29
2023-08-22T23:06:19.546Z,99.30
2023-08-22T23:08:46.015Z,99.64
2023-08-22T23:11:18.879Z,99.46
2023-08-22T23:13:54.221Z,99.24
2023-08-22T23:16:20.798Z,99.46
2023-08-22T23:18:47.401Z,99.42
2023-08-22T23:21:13.880Z,98.66
2023-08-22T23:23:40.322Z,99.30
2023-08-22T23:26:06.897Z,100.00
2023-08-22T23:28:33.689Z,100.00
2023-08-22T23:31:00.441Z,99.61
2023-08-22T23:33:27.038Z,99.54
2023-08-22T23:35:53.511Z,99.29
2023-08-22T23:38:20.167Z,99.26
2023-08-22T23:40:46.781Z,98.94
2023-08-22T23:43:13.266Z,98.83
2023-08-22T23:45:39.818Z,98.98
2023-08-22T23:48:06.367Z,99.54
2023-08-22T23:50:34.836Z,99.23
2023-08-22T23:53:02.855Z,99.01
2023-08-22T23:55:29.304Z,99.67
2023-08-22T23:57:58.807Z,99.92
